LIRN Airport Information

Runway Information
Runway 06 Length 8622 ft width 148 ft
Elevation 284 ft Threshold 1309 ft Heading 58
Runway 24 Length 8622 ft Width 148 ft
Elevation 223 ft Threshold 624 ft Heading 238
Airport Frequencies
Type APP Name NAPOLI RAD Frequency 124.35 MHZ
Type ATIS Name ATIS Frequency 135.975 MHZ
Type DIR Name NAPOLI DIR Frequency 120.95 MHZ
Type GCCD Name NAPOLI GND Frequency 121.9 MHZ
Type OPS Name USN BASE O Frequency 118.275 MHZ
Type PMSV Name PMSV METRO Frequency 34.1 MHZ
Type POST Name ATOC Frequency 118.275 MHZ
Type TWR Name NAPOLI TWR Frequency 118.5 MHZ
Airport Navaids
Type VOR-DME Name Pomigliano Frequency 117850 KHZ
Type NDB Name Pomigliano Frequency 351 KHZ
Airport Weather Information & NOTAM
ADDS - METARS form results

(0418 UTC 27 February 2021)
Data provider http://aviationweather.gov/metar/data/
 
METAR text: LIRN 270350Z 07004KT 040V120 1500 BR NSC 11/09 Q1024 NOSIG
Conditions at: LIRN (NAPLES/CAPODICHI, IT) observed 0350 UTC 27 February 2021
Temperature: 11.0°C (52°F)
Dewpoint: 9.0°C (48°F) [RH = 87%]
Pressure (altimeter): 30.24 inches Hg (1024.0 mb)
Winds: from the ENE (70 degrees) at 5 MPH (4 knots; 2.1 m/s)
Visibility: 0.93 miles (1.50 km)
Ceiling: at least 12,000 feet AGL
Clouds: sky clear below 12,000 feet AGL
Weather: BR  (mist)

METAR text: LIRN 270320Z 06004KT 1000 R06/P1500N R24/P1500N BR NSC 11/09 Q1024 NOSIG
Conditions at: LIRN (NAPLES/CAPODICHI, IT) observed 0320 UTC 27 February 2021
Temperature: 11.0°C (52°F)
Dewpoint: 9.0°C (48°F) [RH = 87%]
Pressure (altimeter): 30.24 inches Hg (1024.0 mb)
Winds: from the ENE (60 degrees) at 5 MPH (4 knots; 2.1 m/s)
Visibility: 0.62 miles (1.00 km)
Ceiling: at least 12,000 feet AGL
Clouds: sky clear below 12,000 feet AGL
Weather: BR  (mist)

Forecast for: LIRN (NAPLES/CAPODICHI, IT)
Text: TAF LIRN 262300Z 2700/2724 VRB04KT 0400 FG OVC002
Forecast period: 0000 to 0900 UTC 27 February 2021
Forecast type: FROM: standard forecast or significant change
Winds: variable direction winds at 5 MPH (4 knots; 2.1 m/s)
Visibility: 0.25 miles (0.40 km)
Ceiling: 200 feet AGL
Clouds: overcast cloud deck at 200 feet AGL
Weather: FG  (fog)
Text: BECMG 2709/2711 26010KT 7000 SCT015
Forecast period: 0900 to 1700 UTC 27 February 2021
Forecast type: BECOMING: Conditions expected to become as follows by 1100 UTC 27 February 2021
Winds: from the W (260 degrees) at 12 MPH (10 knots; 5.1 m/s)
Visibility: 4 miles (7 km)
Ceiling: at least 12,000 feet AGL
Clouds: scattered clouds at 1500 feet AGL
Weather: FG  (fog)
Text: BECMG 2717/2719 VRB05KT
Forecast period: 1700 UTC 27 February 2021 to 0000 UTC 28 February 2021
Forecast type: BECOMING: Conditions expected to become as follows by 1900 UTC 27 February 2021
Winds: variable direction winds at 6 MPH (5 knots; 2.6 m/s)
Visibility: 4 miles (7 km)
Ceiling: at least 12,000 feet AGL
Clouds: scattered clouds at 1500 feet AGL
Weather: FG  (fog)